Erwinville, LA

7:43 PM CDT on March 29, 2015 (GMT -0500)
Erwinville | | Change Station
CLOSE
Current Station
Personal Weather Station
Location: Erwinville, LA
Elevation: 30 ft
Nearby Weather Stations
Active Advisory: Flood Warning

Elev 30 ft 30.53 °N, 91.41 °W | Updated 0 second ago

Clear
Clear
71.4 °F
Feels Like 73 °F
N
2.0
Wind Variable Wind from South
Gusts 7.0 mph

Today
High -- | Low -- °F
--% Chance of Precip.
Yesterday
High -- | Low -- °F
Precip. -- in
6:58 AM 7:22 PM
Waxing Gibbous, 75% visible
Pressure 30.16 in
Visibility 10.0 miles
Clouds Clear
Heat Index 73 °F
Dew Point 63 °F
Humidity 75%
Rainfall 0.00 in
Snow Depth Not available.
UV 0 out of 12
Pollen 10.40 out of 12
Air Quality Not available.
Flu Activity Not available.
METAR KHZR 300035Z AUTO 19009G14KT 10SM CLR 22/14 A3016 RMK AO2 T02190142

More Conditions Fewer Conditions

Pressure 30.16 in
Visibility 10.0 miles
Clouds Clear
Heat Index 73 °F
Dew Point 63 °F
Humidity 75%
Rainfall 0.00 in
Snow Depth Not available.
UV 0 out of 12
Pollen 10.40 out of 12
Air Quality Not available.
Flu Activity Not available.
METAR KHZR 300035Z AUTO 19009G14KT 10SM CLR 22/14 A3016 RMK AO2 T02190142

More Conditions Fewer Conditions

10-Day Weather Forecast

Almanac

Astronomy

Mar. 29, 2015 Rise Set
Actual Time
Civil Twilight
Nautical Twilight
Astronomical Twilight
Moon
Length of Visible Light
Length of Day
Tomorrow will be .
, % of the Moon is Illuminated

Today's Extremes

State Highs State Lows

Community

WunderPhotos

Upload Photos

1,809,389 photos uploaded!

WunderBlogs® & News

Nearby

Air Quality

  Air Quality AQ Index Pollutant
Not available.

Snow Depth

Station Depth Elevation

Earthquake Activity

City Distance Mag. Time & Date
Minimum magnitude displayed is 2.5.

Coastal Water Temperatures

Place Temperature

Stations

Nearby Weather Stations

Station Location Temp. Windchill Dew Point Humidity Wind Precip. Elev Updated Type
                   
Flood Warning
Statement as of 11:52 AM CDT on March 29, 2015

The Flood Warning continues for
the Mississippi River at Baton Rouge.
* Until further notice.
* At 11:00 am Sunday the stage was 35.7 feet.
* Minor flooding is occurring and minor flooding is forecast.
* Flood stage is 35.0 feet.
* Forecast... the river is expected to continue rising until cresting at
around 36.1 feet by Wednesday morning.
* Impact... at 36.0 feet... river traffic and Industrial activity on the
river side of the levees will be greatly affected. Navigational
safety regulations will be strictly enforced.
* Impact... at 35.0 feet... river islands from Red River Landing
downstream to Baton Rouge will be inundated.


Lat... Lon 3074 9130 3071 9159 3032 9130 3035 9113